LHBP/BUD METAR and TAF weather

Enter ICAO airport designator
Station Type Date Time Source
LHBP METAR 2019/12/14 19:30 UTC NOAA

LHBP 141930Z 13004KT 070V180 9999 -SHRA FEW030 05/03 Q1007 NOSIG


Station Type Date Time Source
LHBP Decoded METAR 2019/12/14 19:30 UTC NOAA

Budapest / Ferihegy, Hungary (LHBP) 47-26N 019-16E 185M
Dec 14, 2019 - 02:30 PM EST / 2019.12.14 1930 UTC
Wind: from the SE (130 degrees) at 5 MPH (4 KT) (direction variable):0
Visibility: greater than 7 mile(s):0
Sky conditions: mostly clear
Weather: light rain showers
Temperature: 41 F (5 C)
Dew Point: 37 F (3 C)
Relative Humidity: 86%
Pressure (altimeter): 29.74 in. Hg (1007 hPa)
ob: LHBP 141930Z 13004KT 070V180 9999 -SHRA FEW030 05/03 Q1007 NOSIG
cycle: 19

Station Type Date Time Source
LHBP TAF 2019/12/14 18:27 UTC NOAA

TAF TAF LHBP 141715Z 1418/1518 23008KT CAVOK
TEMPO 1423/1506 VRB03KT 4000 BR
BECMG 1506/1508 16008KT

Example: see airport list